createdAt,value
2023-02-19T00:03:51.166Z,26.77
2023-02-19T00:06:22.022Z,30.48
2023-02-19T00:08:50.554Z,28.23
2023-02-19T00:11:24.343Z,29.48
2023-02-19T00:13:54.566Z,26.67
2023-02-19T00:16:25.878Z,27.13
2023-02-19T00:18:56.248Z,29.38
2023-02-19T00:21:25.693Z,28.67
2023-02-19T00:23:59.533Z,25.70
2023-02-19T00:26:28.460Z,30.00
2023-02-19T00:28:57.908Z,28.42
2023-02-19T00:31:31.482Z,29.10
2023-02-19T00:34:05.082Z,26.70
2023-02-19T00:36:41.358Z,26.35
2023-02-19T00:39:14.458Z,29.20
2023-02-19T00:41:42.932Z,29.38
2023-02-19T00:44:11.652Z,28.60
2023-02-19T00:46:42.946Z,30.63
2023-02-19T00:49:17.301Z,28.27
2023-02-19T00:51:45.799Z,30.83
2023-02-19T00:54:14.513Z,30.48
2023-02-19T00:56:42.908Z,24.13
2023-02-19T00:59:11.322Z,27.23
2023-02-19T01:01:45.254Z,25.77
2023-02-19T01:04:13.878Z,27.50
2023-02-19T01:06:45.044Z,24.63
2023-02-19T01:09:12.890Z,25.17
2023-02-19T01:11:42.152Z,28.20
2023-02-19T01:14:10.201Z,27.33
2023-02-19T01:16:38.593Z,27.50
2023-02-19T01:19:06.200Z,28.90
2023-02-19T01:21:34.414Z,28.02
2023-02-19T01:24:04.214Z,27.60
2023-02-19T01:26:33.448Z,34.42
2023-02-19T01:29:04.317Z,26.83
2023-02-19T01:31:33.169Z,28.70
2023-02-19T01:34:04.455Z,28.67
2023-02-19T01:36:34.653Z,29.02
2023-02-19T01:39:06.417Z,31.80
2023-02-19T01:41:39.878Z,28.20
2023-02-19T01:44:29.695Z,28.08
2023-02-19T01:46:59.042Z,30.67
2023-02-19T01:49:30.713Z,26.75
2023-02-19T01:52:31.202Z,32.85
2023-02-19T01:55:01.382Z,31.77
2023-02-19T01:57:34.220Z,28.52
2023-02-19T02:00:16.899Z,27.55
2023-02-19T02:02:51.835Z,27.23
2023-02-19T02:05:41.786Z,24.42
2023-02-19T02:08:29.061Z,27.03
2023-02-19T02:10:58.317Z,28.58
2023-02-19T02:13:27.118Z,28.17
2023-02-19T02:16:02.562Z,25.85
2023-02-19T02:18:45.337Z,29.77
2023-02-19T02:21:28.357Z,28.63
2023-02-19T02:24:25.908Z,28.27
2023-02-19T02:27:18.889Z,25.80
2023-02-19T02:30:04.601Z,26.52
2023-02-19T02:33:20.224Z,29.10
2023-02-19T02:35:54.813Z,32.77
2023-02-19T02:38:29.374Z,28.13
2023-02-19T02:41:04.973Z,29.48
2023-02-19T02:43:33.840Z,30.77
2023-02-19T02:46:01.982Z,30.20
2023-02-19T02:48:46.845Z,30.33
2023-02-19T02:51:31.372Z,30.52
2023-02-19T02:54:26.870Z,30.33
2023-02-19T02:56:57.243Z,28.10
2023-02-19T02:59:30.493Z,34.05
2023-02-19T03:02:11.546Z,28.43
2023-02-19T03:05:25.964Z,33.63
2023-02-19T03:07:57.883Z,31.20
2023-02-19T03:10:37.693Z,30.45
2023-02-19T03:13:33.212Z,31.92
2023-02-19T03:16:29.698Z,26.10
2023-02-19T03:19:18.618Z,29.83
2023-02-19T03:21:58.387Z,25.60
2023-02-19T03:24:57.533Z,29.00
2023-02-19T03:27:30.948Z,30.92
2023-02-19T03:30:05.325Z,27.77
2023-02-19T03:32:51.674Z,29.10
2023-02-19T03:35:27.433Z,28.48
2023-02-19T03:38:11.455Z,26.70
2023-02-19T03:41:00.362Z,29.58
2023-02-19T03:43:42.571Z,25.67
2023-02-19T03:46:35.716Z,29.02
2023-02-19T03:49:12.703Z,26.50
2023-02-19T03:52:03.550Z,26.52
2023-02-19T03:54:50.075Z,28.67
2023-02-19T03:57:46.350Z,30.60
2023-02-19T04:00:31.812Z,28.95
2023-02-19T04:03:14.180Z,24.92
2023-02-19T04:05:49.087Z,26.08
2023-02-19T04:08:22.335Z,26.60
2023-02-19T04:10:56.226Z,27.63
2023-02-19T04:13:35.299Z,24.73
2023-02-19T04:16:12.338Z,28.67
2023-02-19T04:18:44.588Z,26.58
2023-02-19T04:21:13.786Z,27.60
2023-02-19T04:23:45.941Z,25.93
2023-02-19T04:26:15.732Z,30.60
2023-02-19T04:28:44.580Z,27.05
2023-02-19T04:31:12.876Z,30.20
2023-02-19T04:33:41.154Z,27.67
2023-02-19T04:36:11.497Z,29.27
2023-02-19T04:38:39.655Z,27.77
2023-02-19T04:41:07.447Z,28.38
2023-02-19T04:43:35.523Z,29.20
2023-02-19T04:46:03.644Z,31.02
2023-02-19T04:48:31.820Z,30.37
2023-02-19T04:50:59.626Z,30.42
2023-02-19T04:53:27.901Z,33.03
2023-02-19T04:55:55.607Z,30.77
2023-02-19T04:58:23.887Z,34.00
2023-02-19T05:00:54.395Z,32.37
2023-02-19T05:03:22.751Z,31.52
2023-02-19T05:05:50.406Z,26.10
2023-02-19T05:08:18.602Z,32.58
2023-02-19T05:10:46.504Z,25.02
2023-02-19T05:13:14.930Z,28.43
2023-02-19T05:15:42.659Z,29.92
2023-02-19T05:18:10.892Z,35.05
2023-02-19T05:20:38.606Z,34.83
2023-02-19T05:23:06.900Z,38.95
2023-02-19T05:25:34.606Z,30.60
2023-02-19T05:28:54.690Z,29.90
2023-02-19T05:31:23.031Z,31.25
2023-02-19T05:33:54.220Z,34.00
2023-02-19T05:36:22.841Z,31.67
2023-02-19T05:38:57.287Z,31.10
2023-02-19T05:41:27.835Z,34.55
2023-02-19T05:43:57.155Z,33.08
2023-02-19T05:46:30.168Z,35.67
2023-02-19T05:48:59.016Z,35.13
2023-02-19T05:51:28.043Z,35.63
2023-02-19T05:53:57.868Z,33.95
2023-02-19T05:56:36.370Z,26.98
2023-02-19T05:59:08.345Z,35.80
2023-02-19T06:01:36.584Z,33.97
2023-02-19T06:04:05.085Z,37.23
2023-02-19T06:06:33.093Z,36.53
2023-02-19T06:09:01.125Z,36.10
2023-02-19T06:11:29.959Z,35.03
2023-02-19T06:13:58.237Z,33.33
2023-02-19T06:16:26.348Z,33.90
2023-02-19T06:18:54.714Z,26.58
2023-02-19T06:21:22.922Z,41.70
2023-02-19T06:23:51.120Z,44.35
2023-02-19T06:26:24.525Z,33.53
2023-02-19T06:28:53.883Z,29.13
2023-02-19T06:31:23.115Z,32.85
2023-02-19T06:33:51.460Z,33.90
2023-02-19T06:36:24.016Z,30.23
2023-02-19T06:38:52.386Z,27.15
2023-02-19T06:41:20.274Z,31.00
2023-02-19T06:43:48.991Z,30.45
2023-02-19T06:46:16.876Z,28.92
2023-02-19T06:48:45.819Z,29.02
2023-02-19T06:51:15.358Z,19.83
2023-02-19T06:53:43.675Z,27.63
2023-02-19T06:56:28.666Z,27.95
2023-02-19T06:59:00.646Z,25.95
2023-02-19T07:01:31.783Z,26.52
2023-02-19T07:04:00.428Z,24.35
2023-02-19T07:06:30.783Z,26.37
2023-02-19T07:08:59.810Z,22.50
2023-02-19T07:11:32.770Z,21.58
2023-02-19T07:14:03.450Z,22.92
2023-02-19T07:16:32.109Z,23.40
2023-02-19T07:19:01.675Z,21.27
2023-02-19T07:21:30.386Z,22.25
2023-02-19T07:23:59.103Z,24.75
2023-02-19T07:26:27.221Z,20.90
2023-02-19T07:29:01.101Z,22.52
2023-02-19T07:31:29.397Z,29.20
2023-02-19T07:33:57.590Z,27.60
2023-02-19T07:36:26.181Z,21.50
2023-02-19T07:38:56.580Z,23.17
2023-02-19T07:41:25.288Z,24.00
2023-02-19T07:43:57.713Z,30.50
2023-02-19T07:46:25.896Z,21.05
2023-02-19T07:48:54.028Z,21.92
2023-02-19T07:51:22.540Z,23.25
2023-02-19T07:53:51.664Z,22.33
2023-02-19T07:56:22.822Z,22.57
2023-02-19T07:58:51.064Z,22.83
2023-02-19T08:01:42.507Z,18.80
2023-02-19T08:04:18.383Z,22.13
2023-02-19T08:06:51.057Z,17.77
2023-02-19T08:09:24.303Z,29.47
2023-02-19T08:12:14.166Z,22.33
2023-02-19T08:14:43.899Z,21.98
2023-02-19T08:17:14.485Z,19.92
2023-02-19T08:19:45.099Z,22.52
2023-02-19T08:22:17.215Z,21.47
2023-02-19T08:24:45.746Z,22.08
2023-02-19T08:27:13.490Z,21.35
2023-02-19T08:29:41.705Z,24.02
2023-02-19T08:32:09.587Z,19.80
2023-02-19T08:34:40.016Z,22.00
2023-02-19T08:37:11.635Z,22.98
2023-02-19T08:39:46.608Z,19.20
2023-02-19T08:42:17.597Z,20.83
2023-02-19T08:44:49.391Z,20.73
2023-02-19T08:47:18.744Z,21.10
2023-02-19T08:49:47.082Z,20.45
2023-02-19T08:52:15.473Z,23.92
2023-02-19T08:54:45.361Z,21.75
2023-02-19T08:57:14.772Z,21.02
2023-02-19T08:59:44.037Z,21.77
2023-02-19T09:02:13.222Z,20.70
2023-02-19T09:04:41.443Z,20.15
2023-02-19T09:07:12.647Z,21.48
2023-02-19T09:09:41.429Z,16.70
2023-02-19T09:12:11.302Z,17.33
2023-02-19T09:14:39.858Z,19.48
2023-02-19T09:17:12.658Z,20.80
2023-02-19T09:19:44.509Z,19.30
2023-02-19T09:22:15.894Z,18.50
2023-02-19T09:24:45.131Z,18.10
2023-02-19T09:27:18.832Z,18.25
2023-02-19T09:29:47.998Z,20.08
2023-02-19T09:32:17.154Z,17.52
2023-02-19T09:34:47.350Z,14.88
2023-02-19T09:37:15.171Z,15.97
2023-02-19T09:39:45.595Z,15.15
2023-02-19T09:42:19.013Z,12.05
2023-02-19T09:44:51.795Z,14.00
2023-02-19T09:47:23.478Z,12.27
2023-02-19T09:50:15.738Z,12.53
2023-02-19T09:52:53.632Z,12.65
2023-02-19T09:55:49.342Z,12.23
2023-02-19T09:58:32.117Z,9.45
2023-02-19T10:01:05.671Z,22.58
2023-02-19T10:03:45.511Z,11.57
2023-02-19T10:06:31.343Z,11.13
2023-02-19T10:09:27.782Z,12.55
2023-02-19T10:12:00.634Z,11.68
2023-02-19T10:14:40.489Z,8.82
2023-02-19T10:17:22.890Z,31.17
2023-02-19T10:19:58.132Z,12.18
2023-02-19T10:22:27.676Z,10.82
2023-02-19T10:24:56.843Z,10.98
2023-02-19T10:27:30.672Z,11.65
2023-02-19T10:30:02.850Z,11.73
2023-02-19T10:32:31.628Z,12.93
2023-02-19T10:35:17.473Z,9.65
2023-02-19T10:37:50.431Z,12.23
2023-02-19T10:40:26.190Z,9.13
2023-02-19T10:42:59.421Z,9.93
2023-02-19T10:45:57.981Z,11.52
2023-02-19T10:48:33.176Z,9.07
2023-02-19T10:51:05.832Z,11.48
2023-02-19T10:53:46.178Z,12.32
2023-02-19T10:56:30.212Z,11.20
2023-02-19T10:59:19.014Z,12.07
2023-02-19T11:02:02.888Z,10.32
2023-02-19T11:04:47.520Z,11.07
2023-02-19T11:07:25.305Z,10.45
2023-02-19T11:09:58.895Z,11.70
2023-02-19T11:12:38.543Z,11.45
2023-02-19T11:15:39.986Z,10.77
2023-02-19T11:18:14.386Z,9.70
2023-02-19T11:21:03.531Z,10.02
2023-02-19T11:23:46.480Z,10.40
2023-02-19T11:26:50.359Z,11.25
2023-02-19T11:29:36.772Z,8.55
2023-02-19T11:32:21.033Z,8.20
2023-02-19T11:35:05.627Z,10.13
2023-02-19T11:37:36.234Z,12.17
2023-02-19T11:40:05.192Z,9.15
2023-02-19T11:42:37.588Z,10.30
2023-02-19T11:45:46.534Z,8.75
2023-02-19T11:48:41.518Z,8.13
2023-02-19T11:51:17.364Z,7.93
2023-02-19T11:54:11.994Z,8.98
2023-02-19T11:56:46.108Z,8.50
2023-02-19T11:59:25.809Z,9.52
2023-02-19T12:02:08.574Z,10.77
2023-02-19T12:04:37.808Z,7.13
2023-02-19T12:07:26.010Z,9.18
2023-02-19T12:10:14.499Z,9.43
2023-02-19T12:13:12.873Z,9.60
2023-02-19T12:16:17.061Z,8.43
2023-02-19T12:18:47.983Z,6.50
2023-02-19T12:21:36.558Z,7.18
2023-02-19T12:25:02.568Z,6.90
2023-02-19T12:27:46.277Z,6.40
2023-02-19T12:30:14.455Z,5.70
2023-02-19T12:32:48.519Z,6.20
2023-02-19T12:35:28.911Z,7.38
2023-02-19T12:38:25.819Z,8.15
2023-02-19T12:41:13.765Z,5.88
2023-02-19T12:43:52.898Z,5.63
2023-02-19T12:46:33.384Z,5.80
2023-02-19T12:49:20.472Z,6.05
2023-02-19T12:52:01.606Z,5.38
2023-02-19T12:54:44.620Z,5.03
2023-02-19T12:57:23.431Z,6.97
2023-02-19T13:00:06.167Z,4.37
2023-02-19T13:02:51.074Z,6.22
2023-02-19T13:05:22.343Z,5.03
2023-02-19T13:08:23.390Z,3.58
2023-02-19T13:11:17.747Z,6.82
2023-02-19T13:14:00.106Z,4.73
2023-02-19T13:16:33.981Z,3.63
2023-02-19T13:19:05.100Z,4.38
2023-02-19T13:21:56.627Z,4.03
2023-02-19T13:24:33.051Z,4.05
2023-02-19T13:27:22.537Z,4.20
2023-02-19T13:30:09.902Z,6.22
2023-02-19T13:32:55.644Z,6.10
2023-02-19T13:36:01.829Z,7.47
2023-02-19T13:38:30.364Z,10.73
2023-02-19T13:41:00.667Z,7.07
2023-02-19T13:43:37.565Z,6.15
2023-02-19T13:46:11.710Z,5.18
2023-02-19T13:48:42.415Z,4.93
2023-02-19T13:51:13.538Z,13.07
2023-02-19T13:53:45.265Z,5.17
2023-02-19T13:56:32.052Z,4.70
2023-02-19T13:59:14.621Z,6.10
2023-02-19T14:01:54.846Z,6.65
2023-02-19T14:04:41.622Z,5.88
2023-02-19T14:07:12.625Z,7.13
2023-02-19T14:09:40.998Z,7.55
2023-02-19T14:12:12.202Z,14.70
2023-02-19T14:14:57.599Z,9.13
2023-02-19T14:17:44.322Z,7.50
2023-02-19T14:20:15.788Z,7.70
2023-02-19T14:22:53.158Z,8.90
2023-02-19T14:25:38.913Z,9.05
2023-02-19T14:28:22.059Z,9.77
2023-02-19T14:30:53.558Z,10.80
2023-02-19T14:33:27.799Z,5.70
2023-02-19T14:36:33.373Z,10.10
2023-02-19T14:39:03.477Z,10.23
2023-02-19T14:41:34.965Z,10.02
2023-02-19T14:44:04.242Z,11.00
2023-02-19T14:46:38.064Z,6.87
2023-02-19T14:49:25.445Z,6.85
2023-02-19T14:52:04.428Z,8.13
2023-02-19T14:54:44.643Z,7.30
2023-02-19T14:57:18.625Z,7.63
2023-02-19T15:00:00.988Z,7.53
2023-02-19T15:02:31.353Z,6.00
2023-02-19T15:05:00.236Z,9.85
2023-02-19T15:07:32.410Z,7.43
2023-02-19T15:10:06.007Z,7.18
2023-02-19T15:12:48.123Z,6.37
2023-02-19T15:15:30.334Z,9.15
2023-02-19T15:18:01.250Z,9.30
2023-02-19T15:20:35.199Z,7.53
2023-02-19T15:23:07.073Z,10.50
2023-02-19T15:25:38.385Z,11.47
2023-02-19T15:28:25.553Z,9.20
2023-02-19T15:30:59.678Z,10.90
2023-02-19T15:33:28.778Z,9.43
2023-02-19T15:36:00.234Z,10.85
2023-02-19T15:38:29.832Z,7.40
2023-02-19T15:40:58.972Z,7.25
2023-02-19T15:43:45.857Z,7.47
2023-02-19T15:46:23.221Z,8.40
2023-02-19T15:49:16.552Z,14.52
2023-02-19T15:51:54.910Z,19.53
2023-02-19T15:54:29.160Z,10.70
2023-02-19T15:57:01.399Z,7.75
2023-02-19T15:59:39.562Z,15.15
2023-02-19T16:02:16.471Z,22.75
2023-02-19T16:05:16.944Z,21.93
2023-02-19T16:08:21.878Z,9.10
2023-02-19T16:11:01.289Z,7.03
2023-02-19T16:13:32.262Z,6.93
2023-02-19T16:16:30.638Z,11.50
2023-02-19T16:19:49.442Z,41.00
2023-02-19T16:22:34.140Z,9.23
2023-02-19T16:25:07.593Z,19.30
2023-02-19T16:27:45.277Z,8.40
2023-02-19T16:30:25.869Z,6.35
2023-02-19T16:33:38.098Z,6.43
2023-02-19T16:36:29.240Z,8.10
2023-02-19T16:39:00.545Z,10.30
2023-02-19T16:41:28.300Z,11.25
2023-02-19T16:43:56.332Z,14.30
2023-02-19T16:46:24.625Z,16.97
2023-02-19T16:48:54.955Z,18.00
2023-02-19T16:51:26.346Z,21.55
2023-02-19T16:53:56.699Z,22.05
2023-02-19T16:56:32.293Z,22.75
2023-02-19T16:59:00.902Z,16.50
2023-02-19T17:01:32.063Z,25.02
2023-02-19T17:04:04.992Z,28.38
2023-02-19T17:06:38.125Z,28.85
2023-02-19T17:09:08.952Z,28.48
2023-02-19T17:11:37.234Z,29.13
2023-02-19T17:14:05.537Z,29.85
2023-02-19T17:16:40.779Z,28.92
2023-02-19T17:19:19.933Z,31.25
2023-02-19T17:21:48.034Z,27.55
2023-02-19T17:24:16.320Z,29.30
2023-02-19T17:26:44.208Z,29.77
2023-02-19T17:29:15.131Z,27.20
2023-02-19T17:31:43.307Z,30.23
2023-02-19T17:34:12.201Z,34.25
2023-02-19T17:36:41.515Z,31.03
2023-02-19T17:39:17.925Z,36.25
2023-02-19T17:41:45.923Z,28.25
2023-02-19T17:44:14.066Z,32.35
2023-02-19T17:46:42.794Z,31.13
2023-02-19T17:49:13.423Z,29.13
2023-02-19T17:51:41.542Z,28.08
2023-02-19T17:54:10.095Z,27.30
2023-02-19T17:56:43.696Z,27.85
2023-02-19T17:59:13.206Z,25.85
2023-02-19T18:01:41.581Z,25.03
2023-02-19T18:04:10.128Z,31.98
2023-02-19T18:06:37.971Z,27.42
2023-02-19T18:09:06.368Z,22.88
2023-02-19T18:11:35.478Z,33.05
2023-02-19T18:14:04.652Z,26.13
2023-02-19T18:16:32.605Z,26.92
2023-02-19T18:19:02.661Z,27.10
2023-02-19T18:21:30.443Z,25.55
2023-02-19T18:23:58.670Z,26.83
2023-02-19T18:26:26.399Z,26.27
2023-02-19T18:28:54.921Z,24.80
2023-02-19T18:31:22.823Z,25.38
2023-02-19T18:33:51.516Z,29.05
2023-02-19T18:36:19.463Z,24.17
2023-02-19T18:38:47.953Z,26.40
2023-02-19T18:41:20.757Z,23.52
2023-02-19T18:43:49.581Z,28.52
2023-02-19T18:46:20.766Z,29.88
2023-02-19T18:48:49.166Z,38.53
2023-02-19T18:51:16.856Z,34.20
2023-02-19T18:53:48.001Z,31.05
2023-02-19T18:56:17.907Z,30.35
2023-02-19T18:58:50.302Z,30.70
2023-02-19T19:01:20.019Z,31.38
2023-02-19T19:03:49.109Z,30.27
2023-02-19T19:06:23.452Z,25.50
2023-02-19T19:08:54.101Z,30.58
2023-02-19T19:11:24.237Z,24.60
2023-02-19T19:14:03.495Z,21.48
2023-02-19T19:16:47.132Z,20.97
2023-02-19T19:19:32.373Z,20.33
2023-02-19T19:22:15.107Z,21.27
2023-02-19T19:25:02.778Z,19.27
2023-02-19T19:27:34.605Z,21.30
2023-02-19T19:30:05.724Z,18.87
2023-02-19T19:32:45.204Z,20.35
2023-02-19T19:35:13.884Z,16.23
2023-02-19T19:37:45.891Z,17.77
2023-02-19T19:40:22.716Z,14.43
2023-02-19T19:42:56.336Z,15.10
2023-02-19T19:45:28.937Z,13.02
2023-02-19T19:48:03.732Z,14.38
2023-02-19T19:50:43.654Z,10.75
2023-02-19T19:53:24.446Z,10.63
2023-02-19T19:55:54.759Z,10.20
2023-02-19T19:58:25.250Z,8.30
2023-02-19T20:01:00.302Z,9.25
2023-02-19T20:03:42.626Z,8.73
2023-02-19T20:06:16.599Z,10.07
2023-02-19T20:08:45.308Z,8.40
2023-02-19T20:11:13.717Z,11.18
2023-02-19T20:13:42.271Z,11.60
2023-02-19T20:16:15.931Z,11.02
2023-02-19T20:18:52.588Z,9.77
2023-02-19T20:21:31.007Z,3.27
2023-02-19T20:24:02.691Z,2.45
2023-02-19T20:26:32.997Z,2.28
2023-02-19T20:29:05.222Z,2.38
2023-02-19T20:31:36.611Z,1.90
2023-02-19T20:34:08.725Z,1.47
2023-02-19T20:36:52.785Z,2.03
2023-02-19T20:39:24.913Z,3.13
2023-02-19T20:42:03.528Z,2.80
2023-02-19T20:44:36.061Z,2.17
2023-02-19T20:47:07.346Z,2.63
2023-02-19T20:49:39.966Z,3.92
2023-02-19T20:52:11.619Z,3.40
2023-02-19T20:54:46.306Z,4.03
2023-02-19T20:57:18.984Z,6.88
2023-02-19T20:59:47.038Z,3.37
2023-02-19T21:02:21.111Z,2.75
2023-02-19T21:05:11.225Z,3.92
2023-02-19T21:08:09.081Z,13.73
2023-02-19T21:10:57.906Z,13.45
2023-02-19T21:13:49.570Z,18.30
2023-02-19T21:16:37.572Z,6.20
2023-02-19T21:19:19.181Z,19.15
2023-02-19T21:21:47.183Z,8.35
2023-02-19T21:24:16.221Z,6.30
2023-02-19T21:26:45.150Z,14.67
2023-02-19T21:29:21.997Z,12.80
2023-02-19T21:31:52.723Z,8.77
2023-02-19T21:34:25.000Z,6.05
2023-02-19T21:36:53.885Z,5.45
2023-02-19T21:39:24.514Z,5.22
2023-02-19T21:41:52.769Z,5.38
2023-02-19T21:44:22.118Z,4.60
2023-02-19T21:46:50.343Z,4.22
2023-02-19T21:49:18.763Z,7.45
2023-02-19T21:51:49.252Z,5.67
2023-02-19T21:54:22.078Z,4.93
2023-02-19T21:56:50.060Z,6.05
2023-02-19T21:59:19.480Z,6.20
2023-02-19T22:01:47.578Z,7.03
2023-02-19T22:04:18.351Z,8.55
2023-02-19T22:06:47.007Z,8.43
2023-02-19T22:09:15.412Z,7.15
2023-02-19T22:11:43.412Z,7.40
2023-02-19T22:14:11.502Z,4.45
2023-02-19T22:16:39.531Z,4.63
2023-02-19T22:19:07.619Z,4.57
2023-02-19T22:21:35.790Z,4.60
2023-02-19T22:24:04.329Z,20.80
2023-02-19T22:26:35.037Z,16.67
2023-02-19T22:29:07.561Z,14.90
2023-02-19T22:31:36.322Z,5.30
2023-02-19T22:34:05.250Z,4.75
2023-02-19T22:36:35.041Z,4.85
2023-02-19T22:39:05.138Z,9.75
2023-02-19T22:41:33.976Z,9.35
2023-02-19T22:44:04.280Z,6.70
2023-02-19T22:46:33.893Z,7.47
2023-02-19T22:49:05.075Z,7.68
2023-02-19T22:51:34.356Z,9.77
2023-02-19T22:54:02.441Z,6.77
2023-02-19T22:56:30.314Z,7.07
2023-02-19T22:58:59.508Z,3.25
2023-02-19T23:01:27.620Z,2.28
2023-02-19T23:03:58.074Z,2.88
2023-02-19T23:06:46.094Z,2.70
2023-02-19T23:09:19.140Z,2.20
2023-02-19T23:11:47.504Z,2.83
2023-02-19T23:14:20.360Z,2.40
2023-02-19T23:16:49.274Z,2.75
2023-02-19T23:19:17.898Z,3.08
2023-02-19T23:21:46.254Z,1.63
2023-02-19T23:24:15.453Z,4.72
2023-02-19T23:26:48.170Z,3.10
2023-02-19T23:29:18.826Z,3.05
2023-02-19T23:31:47.304Z,6.57
2023-02-19T23:34:15.634Z,2.47
2023-02-19T23:36:44.966Z,3.50
2023-02-19T23:39:15.435Z,2.15
2023-02-19T23:41:52.542Z,3.08
2023-02-19T23:44:22.000Z,3.13
2023-02-19T23:46:50.309Z,2.30
2023-02-19T23:49:19.524Z,2.30
2023-02-19T23:51:48.442Z,2.70
2023-02-19T23:54:16.678Z,2.80
2023-02-19T23:56:44.415Z,2.37
2023-02-19T23:59:12.829Z,2.45
